New London, Iowa
Current Conditions -  °F | °C
As of 10:35 PM on Saturday 20 Dec 2014 (Local Time) from KMPZ Reporting Station
Haze Haze  
Wind Chill: 27°   Ceiling: 400
Heat Index: 34°   Visibility: 2.5mi
Dew Point: 34°   Wind: 8mph
Humidity: 100%   Direction: 160°SSE
Pressure: 30.18"   Gusts: NA
Location:  40.93°N, 91.4°W
Report Text: KMPZ 210435Z AUTO 16007KT 2 1/2SM BR OVC004 01/01 A3018 RMK AO2 T00120012
Loading
Personal Weather Stations






























Interactive Weather Map New forecast layout! Learn more

10-Day Weather Forecast

Advertisements
Track Severe Weather on mobile